Huvudsida
METAR-TAF:

METAR-TAF

Flygplatser :

Khartoum, Sudan

latitud: 15-36N, longitud: 032-33E, höjd: 382 m

Aktuellt väderrapport

Denna rapport gjordes för 31 minuter sedan, klockan 16:30 UTC
Vind 15 kt från nord
Temperatur 30°C
Fuktighet 12%
Tryck 1010 hPa
Sikt: 2000 m
högt sanddrev

METAR: HSSS 251630Z 36015KT 2000 BLSA 30/M03 Q1010 NOSIG

Tid: 20:01 (17:01 UTC)

Väderprognos

Denna rapport gjordes för 6 timmar och 1 minuter sedan, klockan 11:00 UTC
Prognos gäller från 25 kl. 12 UTC till 26 kl. 18 UTC
Vind 18 kt från nord i byarna ända upp till 28 kt
Sikt: 4000 m
högt sanddrev
Temporärt
från 25 kl. 12 UTC till 25 kl. 16 UTC
Vind 20 kt från nord i byarna ända upp till 30 kt
Sikt: 1000 m
högt sanddrev
Blir
från 25 kl. 16 UTC till 25 kl. 18 UTC
Sikt: 6000 m

TAF: HSSS 251100Z 2512/2618 36018G28KT 4000 BLSA TEMPO 2512/2516 36020G30KT 1000 BLSA BECMG 2516/2518 6000 NSC

Aktuella väderrapporter och prognoser från 4000 flygplatser (METAR- och TAF-rapporter).

De tillgängliga stationerna syns som gula och röda prickar på kartan.

För musen över prickarna för att se namnen på stationerna.

Klicka sedan för att få väderrapporter och prognoser.

För att ändra kartan: Klicka på de gröna knapparna med ett svart kors på för att zooma in; den gröna knappen med ett streck på för att zooma ut; eller på de gröna pilarna för angränsande kartor.


METAR-TAF: